Time;durP1;ratioP1;P1;durP2;ratioP2;P2;SDS_P1;SDS_P2;PMS_P1;PMS_P2;Temp;Humidity;BMP_temperature;BMP_pressure;BME280_temperature;BME280_humidity;BME280_pressure;Samples;Min_cycle;Max_cycle;Signal;HPM_P1;HPM_P2
2022/02/16 00:02:15;;;;;;;213.40;102.88;;;;;;;5.46;58.62;95314.59;4957188;29;20032;-81
2022/02/16 00:04:41;;;;;;;95.80;50.00;;;;;;;5.50;58.73;95309.88;4941577;29;20054;-81
2022/02/16 00:07:07;;;;;;;79.18;39.97;;;;;;;5.54;59.53;95313.69;4958740;29;20035;-82
2022/02/16 00:09:32;;;;;;;108.30;51.92;;;;;;;5.53;59.02;95315.47;4958909;28;20031;-81
2022/02/16 00:12:00;;;;;;;147.43;69.72;;;;;;;5.42;59.24;95319.34;4957816;29;20883;-82
2022/02/16 00:14:26;;;;;;;132.63;69.07;;;;;;;5.37;59.28;95311.38;4942211;29;20431;-82
2022/02/16 00:16:52;;;;;;;165.20;76.18;;;;;;;5.25;59.11;95306.91;4958008;29;20070;-82
2022/02/16 00:19:17;;;;;;;132.70;66.68;;;;;;;5.31;59.06;95312.09;4957794;28;20035;-80
2022/02/16 00:21:43;;;;;;;132.77;65.03;;;;;;;5.20;60.21;95304.88;4956038;29;20101;-80
2022/02/16 00:24:08;;;;;;;146.55;69.63;;;;;;;5.20;60.04;95309.22;4956805;29;20487;-80
2022/02/16 00:26:34;;;;;;;142.00;69.65;;;;;;;5.17;60.10;95297.50;4958415;29;20035;-81
2022/02/16 00:29:02;;;;;;;111.03;54.55;;;;;;;5.10;59.79;95299.25;4958286;28;20035;-80
2022/02/16 00:31:27;;;;;;;140.32;66.78;;;;;;;5.16;59.60;95295.94;4956734;29;20062;-80
2022/02/16 00:33:53;;;;;;;186.40;80.20;;;;;;;5.12;59.31;95303.25;4956210;29;20032;-80
2022/02/16 00:36:18;;;;;;;201.55;87.15;;;;;;;4.93;60.27;95303.06;4963585;28;20047;-80
2022/02/16 00:38:44;;;;;;;215.18;89.80;;;;;;;4.90;60.67;95295.72;4958062;29;20031;-80
2022/02/16 00:41:09;;;;;;;64.82;34.35;;;;;;;4.96;61.04;95294.97;4957629;28;20491;-81
2022/02/16 00:43:35;;;;;;;53.08;30.60;;;;;;;4.95;61.62;95293.38;4958025;28;20039;-80
2022/02/16 00:46:00;;;;;;;54.05;28.98;;;;;;;4.97;61.41;95288.81;4958410;29;20121;-80
2022/02/16 00:48:26;;;;;;;48.15;28.90;;;;;;;5.02;61.26;95291.63;4788367;29;20031;-80
2022/02/16 00:50:51;;;;;;;148.07;63.45;;;;;;;5.02;60.07;95291.63;4958291;29;20066;-80
2022/02/16 00:53:16;;;;;;;72.53;36.65;;;;;;;5.06;61.07;95282.56;4957192;29;20035;-81
2022/02/16 00:55:42;;;;;;;52.40;30.35;;;;;;;5.11;60.54;95282.81;4957116;29;20042;-79
2022/02/16 00:58:07;;;;;;;51.35;28.50;;;;;;;5.12;60.37;95279.25;4956677;29;20031;-81
2022/02/16 01:00:33;;;;;;;65.65;30.83;;;;;;;5.10;61.00;95279.44;4957168;29;20035;-80
2022/02/16 01:02:59;;;;;;;116.72;51.65;;;;;;;5.05;60.44;95278.41;4957737;29;20058;-79
2022/02/16 01:05:24;;;;;;;135.38;66.05;;;;;;;4.99;60.33;95282.50;4962394;28;20070;-79
2022/02/16 01:07:50;;;;;;;139.07;71.13;;;;;;;4.97;60.28;95289.63;4967562;29;20035;-79
2022/02/16 01:10:15;;;;;;;147.90;84.30;;;;;;;4.96;60.63;95292.38;4977792;23;20474;-80
2022/02/16 01:12:41;;;;;;;153.25;86.50;;;;;;;4.94;60.86;95289.19;4965093;28;20085;-80
2022/02/16 01:15:07;;;;;;;138.90;79.95;;;;;;;4.89;61.02;95283.81;4953889;28;20042;-80
2022/02/16 01:17:32;;;;;;;150.07;83.97;;;;;;;4.85;61.09;95274.84;4948079;29;20028;-80
2022/02/16 01:19:58;;;;;;;144.02;82.65;;;;;;;4.88;61.41;95277.03;4948792;28;20140;-81
2022/02/16 01:22:23;;;;;;;133.80;67.82;;;;;;;4.83;61.66;95278.41;4947308;29;20040;-81
2022/02/16 01:24:48;;;;;;;144.82;74.38;;;;;;;4.81;61.16;95274.41;4948813;29;20027;-80
2022/02/16 01:27:14;;;;;;;140.05;72.05;;;;;;;4.82;61.46;95269.06;4945649;29;20404;-80
2022/02/16 01:29:39;;;;;;;137.85;73.55;;;;;;;4.80;61.18;95257.34;4947312;28;20039;-79
2022/02/16 01:34:34;;;;;;;143.05;74.95;;;;;;;4.81;61.38;95256.38;4961959;23;20047;-80
2022/02/16 01:36:59;;;;;;;144.60;82.15;;;;;;;4.75;61.26;95260.50;4946567;28;20582;-81
2022/02/16 01:39:25;;;;;;;161.05;89.55;;;;;;;4.75;61.15;95260.50;4948602;29;20609;-80
2022/02/16 01:41:53;;;;;;;133.35;73.13;;;;;;;4.71;61.00;95254.09;4945439;28;20388;-81
2022/02/16 01:44:20;;;;;;;131.55;65.65;;;;;;;4.70;61.27;95249.13;4955154;29;20036;-80
2022/02/16 01:46:52;;;;;;;103.53;55.20;;;;;;;4.70;61.05;95249.94;4930059;29;20478;-81
2022/02/16 01:49:17;;;;;;;95.03;52.28;;;;;;;4.61;61.73;95253.63;4938216;29;20067;-80
2022/02/16 01:51:44;;;;;;;86.57;46.80;;;;;;;4.57;61.51;95236.16;4931375;29;20047;-81
2022/02/16 01:54:10;;;;;;;93.35;51.88;;;;;;;4.60;61.21;95226.28;4947765;29;20038;-80
2022/02/16 01:56:36;;;;;;;85.07;45.17;;;;;;;4.57;61.90;95218.13;4921611;29;20032;-80
2022/02/16 02:01:30;;;;;;;77.43;41.08;;;;;;;4.34;61.36;95208.00;5115353;23;20055;-81
2022/02/16 02:03:56;;;;;;;62.30;34.63;;;;;;;4.39;62.62;95210.81;4934450;29;20032;-82
2022/02/16 02:06:21;;;;;;;63.80;36.30;;;;;;;4.38;61.46;95215.16;4935715;29;20063;-82
2022/02/16 02:08:47;;;;;;;73.03;37.28;;;;;;;4.32;61.69;95218.47;4926830;29;20040;-82
2022/02/16 02:11:12;;;;;;;71.82;38.30;;;;;;;4.20;61.92;95215.56;4933820;29;20031;-82
2022/02/16 02:13:37;;;;;;;68.20;37.35;;;;;;;4.23;62.34;95222.16;4936747;29;20036;-82
2022/02/16 02:16:03;;;;;;;62.95;36.55;;;;;;;4.17;62.49;95225.44;4935471;29;20055;-80
2022/02/16 02:18:29;;;;;;;73.82;37.67;;;;;;;4.12;62.71;95215.69;4943469;29;20574;-81
2022/02/16 02:20:54;;;;;;;68.28;36.00;;;;;;;4.11;62.85;95221.81;4920064;29;20035;-81
2022/02/16 02:23:19;;;;;;;61.92;36.50;;;;;;;4.16;62.82;95224.66;4937036;29;20050;-81
2022/02/16 02:25:47;;;;;;;64.80;34.05;;;;;;;4.18;62.50;95217.53;4934837;29;20047;-81
2022/02/16 02:28:12;;;;;;;66.72;38.45;;;;;;;4.18;62.71;95219.31;4935853;29;20058;-80
2022/02/16 02:30:41;;;;;;;68.45;36.45;;;;;;;4.07;62.80;95218.03;4936819;29;20028;-81
2022/02/16 02:33:06;;;;;;;62.33;37.47;;;;;;;4.01;62.77;95216.16;4911213;29;20051;-81
2022/02/16 02:35:32;;;;;;;69.20;40.88;;;;;;;4.08;62.56;95211.09;4936348;29;20039;-80
2022/02/16 02:37:57;;;;;;;94.90;49.45;;;;;;;4.07;62.82;95217.22;4929933;29;20035;-81
2022/02/16 02:40:22;;;;;;;83.60;42.35;;;;;;;4.12;62.78;95209.75;5827509;23;20016;-79
2022/02/16 02:42:48;;;;;;;57.97;36.25;;;;;;;4.08;62.64;95222.19;4965336;28;20062;-80
2022/02/16 02:45:14;;;;;;;63.40;33.10;;;;;;;4.13;63.36;95219.88;4970458;28;20089;-79
2022/02/16 02:47:40;;;;;;;56.15;32.95;;;;;;;4.16;62.72;95219.50;4950491;28;20042;-80
2022/02/16 02:50:06;;;;;;;55.63;32.63;;;;;;;4.15;62.40;95230.78;4957542;28;20177;-80
2022/02/16 02:52:32;;;;;;;61.70;33.22;;;;;;;4.17;62.40;95239.09;4973680;28;20043;-80
2022/02/16 02:54:58;;;;;;;62.42;33.75;;;;;;;4.23;62.20;95219.59;4957490;28;20530;-80
2022/02/16 02:57:26;;;;;;;64.60;33.97;;;;;;;4.16;62.24;95224.66;4974343;28;20526;-79
2022/02/16 02:59:52;;;;;;;58.50;33.95;;;;;;;4.19;62.40;95224.28;4975194;28;20035;-80
2022/02/16 03:02:17;;;;;;;70.80;37.55;;;;;;;4.19;62.64;95216.56;4981232;28;20524;-78
2022/02/16 03:04:43;;;;;;;60.00;35.08;;;;;;;4.25;62.31;95217.63;4988096;28;20035;-78
2022/02/16 03:07:08;;;;;;;66.53;34.67;;;;;;;4.28;62.58;95213.88;4986001;28;20030;-80
2022/02/16 03:09:34;;;;;;;66.53;36.92;;;;;;;4.18;62.95;95214.97;4957854;28;20037;-81
2022/02/16 03:11:59;;;;;;;71.43;39.33;;;;;;;4.24;62.46;95217.81;4975293;28;20042;-81
2022/02/16 03:16:50;;;;;;;71.22;40.20;;;;;;;4.18;62.87;95235.56;4995730;23;20427;-80
2022/02/16 03:19:16;;;;;;;83.55;45.58;;;;;;;4.24;62.18;95238.41;4969749;28;20035;-80
2022/02/16 03:21:41;;;;;;;88.28;47.45;;;;;;;4.35;62.45;95232.75;4961690;28;20027;-80
2022/02/16 03:24:07;;;;;;;77.68;46.90;;;;;;;4.31;62.68;95226.38;4962281;28;20035;-80
2022/02/16 03:26:33;;;;;;;95.00;50.58;;;;;;;4.29;62.72;95233.50;4945772;28;20438;-80
2022/02/16 03:28:59;;;;;;;100.50;51.85;;;;;;;4.27;62.36;95240.59;4960274;28;20064;-81
2022/02/16 03:31:24;;;;;;;99.45;52.95;;;;;;;4.32;62.44;95239.06;4966949;28;20080;-81
2022/02/16 03:33:50;;;;;;;107.38;53.22;;;;;;;4.36;62.71;95226.63;4958559;28;20039;-81
2022/02/16 03:36:15;;;;;;;113.72;56.25;;;;;;;4.42;62.28;95228.47;4974957;28;20027;-81
2022/02/16 03:41:16;;;;;;;245.90;106.60;;;;;;;4.46;62.41;95245.16;5654578;23;20063;-82
2022/02/16 03:43:41;;;;;;;243.30;123.72;;;;;;;4.49;62.63;95234.47;4957538;28;20127;-83
2022/02/16 03:46:07;;;;;;;261.65;119.45;;;;;;;4.54;62.44;95234.72;4939640;29;20479;-82
2022/02/16 03:48:33;;;;;;;230.23;110.95;;;;;;;4.62;61.83;95226.88;4972879;23;20170;-82
2022/02/16 03:50:58;;;;;;;171.90;92.03;;;;;;;4.64;62.48;95235.22;4971640;28;20546;-81
2022/02/16 03:53:24;;;;;;;177.75;96.07;;;;;;;4.74;61.85;95238.31;4968033;28;20027;-81
2022/02/16 03:55:49;;;;;;;147.65;85.40;;;;;;;4.81;62.54;95231.41;4977236;28;20042;-81
2022/02/16 03:58:18;;;;;;;157.23;83.57;;;;;;;4.88;61.92;95222.94;4977531;28;20034;-81
2022/02/16 04:00:43;;;;;;;164.43;90.15;;;;;;;4.92;61.89;95219.00;4977128;28;20097;-82
2022/02/16 04:03:09;;;;;;;158.23;85.05;;;;;;;4.93;61.42;95216.25;4976688;28;20024;-81
2022/02/16 04:05:34;;;;;;;132.02;78.03;;;;;;;4.99;61.21;95222.44;4999830;23;20039;-80
2022/02/16 04:08:00;;;;;;;153.60;76.88;;;;;;;5.02;61.96;95214.31;4971247;28;20070;-80
2022/02/16 04:10:25;;;;;;;136.18;72.50;;;;;;;5.03;61.30;95211.56;4933163;29;20036;-80
2022/02/16 04:12:51;;;;;;;148.45;68.85;;;;;;;5.12;61.42;95207.06;4946805;29;20180;-79
2022/02/16 04:15:16;;;;;;;101.97;58.70;;;;;;;5.23;61.02;95201.41;4950276;28;20035;-79
2022/02/16 04:17:42;;;;;;;137.02;72.35;;;;;;;5.31;60.62;95208.97;4948608;29;20035;-79
2022/02/16 04:20:09;;;;;;;145.70;84.63;;;;;;;5.27;60.69;95206.97;4987818;23;20050;-80
2022/02/16 04:22:42;;;;;;;182.85;114.50;;;;;;;5.29;60.52;95205.00;4977749;28;20034;-80
2022/02/16 04:25:08;;;;;;;207.13;118.07;;;;;;;5.32;60.48;95195.09;4990531;23;20064;-79
2022/02/16 04:27:33;;;;;;;200.45;127.70;;;;;;;5.38;60.34;95202.09;4938611;29;20098;-81
2022/02/16 04:29:59;;;;;;;179.60;115.20;;;;;;;5.38;60.46;95204.66;4938153;29;20052;-81
2022/02/16 04:32:24;;;;;;;191.55;110.80;;;;;;;5.33;60.89;95196.69;4935760;29;20044;-82
2022/02/16 04:34:50;;;;;;;199.15;115.75;;;;;;;5.37;60.85;95187.59;4938382;29;20039;-81
2022/02/16 04:37:15;;;;;;;180.25;105.75;;;;;;;5.50;60.83;95192.00;4939092;29;20043;-81
2022/02/16 04:39:41;;;;;;;176.95;103.57;;;;;;;5.49;60.93;95189.63;4943386;29;20028;-81
2022/02/16 04:42:06;;;;;;;189.02;108.80;;;;;;;5.51;60.55;95192.81;4937350;29;20140;-82
2022/02/16 04:44:32;;;;;;;188.75;107.40;;;;;;;5.57;60.12;95187.69;4937772;29;20027;-82
2022/02/16 04:46:57;;;;;;;174.45;97.95;;;;;;;5.53;60.87;95188.25;4937137;29;20095;-81
2022/02/16 04:49:23;;;;;;;181.77;103.88;;;;;;;5.62;60.20;95194.84;4936409;29;20480;-80
2022/02/16 04:51:48;;;;;;;188.75;114.05;;;;;;;5.64;60.36;95188.50;4939512;29;20420;-80
2022/02/16 04:54:15;;;;;;;192.57;113.22;;;;;;;5.64;59.98;95192.88;4938469;29;20038;-80
2022/02/16 04:56:40;;;;;;;177.73;100.57;;;;;;;5.64;60.14;95187.72;4937790;29;20078;-79
2022/02/16 04:59:05;;;;;;;203.88;116.38;;;;;;;5.57;60.42;95192.06;4945502;29;20024;-79
2022/02/16 05:01:31;;;;;;;244.73;129.77;;;;;;;5.60;60.28;95189.09;4938221;29;20433;-80
2022/02/16 05:03:57;;;;;;;176.50;97.65;;;;;;;5.63;59.64;95189.50;4922067;29;20047;-80
2022/02/16 05:06:23;;;;;;;136.57;81.32;;;;;;;5.59;59.76;95195.25;4953288;23;20031;-80
2022/02/16 05:08:48;;;;;;;150.15;83.00;;;;;;;5.61;60.41;95188.91;4963968;28;20495;-81
2022/02/16 05:11:14;;;;;;;139.90;78.45;;;;;;;5.64;60.41;95190.28;4945574;29;20094;-81
2022/02/16 05:13:39;;;;;;;135.20;77.82;;;;;;;5.66;59.92;95175.41;4948462;29;20050;-79
2022/02/16 05:16:05;;;;;;;121.82;66.93;;;;;;;5.61;59.46;95177.78;4931146;29;20506;-80
2022/02/16 05:18:33;;;;;;;131.05;74.93;;;;;;;5.57;60.41;95176.59;4950115;28;20030;-79
2022/02/16 05:20:58;;;;;;;108.80;60.72;;;;;;;5.66;60.44;95186.53;4931446;29;20119;-78
2022/02/16 05:23:24;;;;;;;96.22;59.78;;;;;;;5.72;59.49;95185.00;4945710;29;20062;-78
2022/02/16 05:25:49;;;;;;;113.78;65.95;;;;;;;5.70;60.39;95181.81;4911534;29;20027;-79
2022/02/16 05:28:15;;;;;;;118.13;67.82;;;;;;;5.69;59.91;95182.78;4944208;29;20031;-78
2022/02/16 05:30:40;;;;;;;135.00;76.50;;;;;;;5.65;60.52;95189.31;4929954;29;20038;-79
2022/02/16 05:33:06;;;;;;;125.13;71.75;;;;;;;5.61;60.38;95193.25;4948351;29;20035;-81
2022/02/16 05:35:31;;;;;;;141.38;76.63;;;;;;;5.66;60.31;95186.53;4929220;29;20036;-81
2022/02/16 05:37:57;;;;;;;169.85;91.45;;;;;;;5.64;60.81;95192.88;4946338;28;20088;-81
2022/02/16 05:40:22;;;;;;;227.18;128.48;;;;;;;5.76;60.28;95191.34;4944807;28;20059;-80
2022/02/16 05:42:48;;;;;;;237.90;128.80;;;;;;;5.70;60.16;95197.28;4946157;28;20035;-84
2022/02/16 05:45:13;;;;;;;216.20;117.88;;;;;;;5.76;60.13;95195.72;4946581;28;20175;-79
2022/02/16 05:47:38;;;;;;;209.02;115.55;;;;;;;5.75;60.27;95194.91;4949141;29;20031;-81
2022/02/16 05:50:05;;;;;;;192.63;114.55;;;;;;;5.86;59.32;95202.13;4947157;28;20119;-80
2022/02/16 05:52:30;;;;;;;199.45;118.03;;;;;;;5.82;60.33;95198.31;4913426;29;20067;-80
2022/02/16 05:54:55;;;;;;;171.18;105.53;;;;;;;5.84;59.86;95193.75;4944173;29;20547;-81
2022/02/16 05:57:21;;;;;;;108.38;59.53;;;;;;;5.99;59.48;95176.38;4943955;29;20055;-80
2022/02/16 05:59:46;;;;;;;82.47;48.38;;;;;;;6.10;58.75;95179.38;4943645;29;20027;-80
2022/02/16 06:02:12;;;;;;;82.07;45.80;;;;;;;6.16;58.00;95181.19;4931147;29;20039;-80
2022/02/16 06:04:38;;;;;;;96.13;55.78;;;;;;;6.18;58.31;95179.19;4945034;28;20211;-80
2022/02/16 06:07:03;;;;;;;96.05;58.40;;;;;;;6.19;58.66;95193.72;4945337;29;20031;-81
2022/02/16 06:09:29;;;;;;;74.78;40.58;;;;;;;6.25;58.89;95187.75;4929878;29;20040;-81
2022/02/16 06:11:54;;;;;;;94.35;51.03;;;;;;;6.32;58.15;95198.91;4921979;29;20102;-79
2022/02/16 06:14:20;;;;;;;100.10;58.10;;;;;;;6.25;58.34;95193.72;4956335;29;20044;-80
2022/02/16 06:16:45;;;;;;;100.55;58.78;;;;;;;6.31;58.69;95199.88;4946862;28;20039;-80
2022/02/16 06:19:11;;;;;;;112.00;66.53;;;;;;;6.34;58.78;95196.91;4929216;29;20043;-80
2022/02/16 06:21:37;;;;;;;124.18;72.18;;;;;;;6.37;58.10;95204.28;4947264;29;20653;-80
2022/02/16 06:24:02;;;;;;;121.40;72.47;;;;;;;6.41;58.06;95205.47;4943839;28;20043;-80
2022/02/16 06:26:27;;;;;;;111.85;69.88;;;;;;;6.60;57.20;95209.88;4914067;29;20042;-80
2022/02/16 06:28:53;;;;;;;118.07;64.78;;;;;;;6.75;56.95;95207.13;4943503;29;20038;-80
2022/02/16 06:31:18;;;;;;;136.02;82.78;;;;;;;6.73;57.33;95200.56;4945584;29;20415;-81
2022/02/16 06:33:44;;;;;;;168.63;104.05;;;;;;;6.91;57.33;95211.09;4947608;28;20091;-81
2022/02/16 06:36:09;;;;;;;171.82;108.05;;;;;;;7.02;57.04;95218.25;4947338;29;20027;-80
2022/02/16 06:38:35;;;;;;;185.88;118.43;;;;;;;7.13;56.37;95219.44;4928485;29;20490;-80
2022/02/16 06:41:00;;;;;;;204.30;128.32;;;;;;;7.22;55.93;95216.44;4928955;29;20028;-80
2022/02/16 06:43:26;;;;;;;231.55;148.15;;;;;;;7.32;55.76;95210.06;4945407;28;20042;-78
2022/02/16 06:45:51;;;;;;;254.25;156.43;;;;;;;7.36;55.56;95213.84;4944834;29;20423;-80
2022/02/16 06:48:17;;;;;;;307.83;180.63;;;;;;;7.46;56.06;95214.22;4929545;29;20058;-80
2022/02/16 06:50:43;;;;;;;269.35;164.02;;;;;;;7.64;55.21;95209.19;4946929;28;20423;-80
2022/02/16 06:53:09;;;;;;;237.15;144.35;;;;;;;7.71;55.19;95209.19;4913959;29;20126;-81
2022/02/16 06:55:34;;;;;;;227.55;131.77;;;;;;;7.75;54.79;95208.56;4949157;29;20042;-79
2022/02/16 06:58:00;;;;;;;232.85;129.02;;;;;;;7.80;54.77;95207.94;4959575;28;20028;-80
2022/02/16 07:00:25;;;;;;;234.70;131.07;;;;;;;7.88;54.73;95196.59;4959980;29;20040;-83
2022/02/16 07:02:51;;;;;;;189.07;104.35;;;;;;;7.95;52.94;95205.13;4950260;29;20032;-83
2022/02/16 07:05:16;;;;;;;215.90;113.35;;;;;;;7.90;53.63;95194.59;4932252;29;20035;-86
2022/02/16 07:07:41;;;;;;;189.52;106.35;;;;;;;7.90;53.87;95189.41;4932206;29;20060;-80
2022/02/16 07:10:07;;;;;;;173.85;91.43;;;;;;;7.92;53.25;95193.38;4929099;29;20039;-81
2022/02/16 07:12:33;;;;;;;121.82;70.05;;;;;;;8.02;53.81;95198.13;4950404;29;20066;-81
2022/02/16 07:14:58;;;;;;;107.30;56.63;;;;;;;8.10;52.32;95190.09;4944112;29;20028;-81
2022/02/16 07:17:24;;;;;;;96.90;54.65;;;;;;;8.25;52.80;95197.59;4945837;29;20028;-81
2022/02/16 07:19:49;;;;;;;103.07;56.67;;;;;;;8.25;52.56;95187.25;4947864;28;20035;-80
2022/02/16 07:22:21;;;;;;;121.90;67.03;;;;;;;8.52;51.53;95193.91;4930176;29;20035;-80
2022/02/16 07:24:47;;;;;;;130.17;77.00;;;;;;;8.63;51.01;95189.84;4948581;29;20046;-80
2022/02/16 07:27:12;;;;;;;139.55;81.68;;;;;;;8.75;52.28;95193.34;4947888;29;20031;-81
2022/02/16 07:29:38;;;;;;;146.90;85.32;;;;;;;8.90;52.36;95193.81;5146928;23;20483;-78
2022/02/16 07:32:03;;;;;;;153.52;87.00;;;;;;;9.13;50.77;95195.84;4967668;28;20043;-79
2022/02/16 07:34:31;;;;;;;142.95;84.18;;;;;;;9.26;49.69;95194.91;4970099;28;20061;-81
2022/02/16 07:37:00;;;;;;;130.65;77.93;;;;;;;9.36;50.78;95187.44;4976634;28;20027;-81
2022/02/16 07:39:27;;;;;;;152.27;84.20;;;;;;;9.58;49.15;95191.19;4975433;28;20030;-81
2022/02/16 07:41:53;;;;;;;129.82;80.53;;;;;;;9.77;49.75;95186.81;4977902;28;20035;-80
2022/02/16 07:44:19;;;;;;;125.07;74.00;;;;;;;9.84;48.85;95181.53;4978884;28;20037;-81
2022/02/16 07:46:44;;;;;;;107.63;61.35;;;;;;;10.03;48.10;95193.50;4967462;23;20047;-81
2022/02/16 07:49:10;;;;;;;109.30;61.58;;;;;;;10.14;47.11;95184.97;4973012;28;20035;-81
2022/02/16 07:51:35;;;;;;;102.63;58.75;;;;;;;10.19;47.31;95179.91;4939502;29;20051;-80
2022/02/16 07:54:01;;;;;;;100.50;56.10;;;;;;;10.23;46.61;95170.69;4941131;29;20035;-81
2022/02/16 07:56:27;;;;;;;101.63;54.50;;;;;;;10.26;46.62;95173.88;4941656;29;20043;-81
2022/02/16 08:01:30;;;;;;;123.90;70.22;;;;;;;10.37;46.09;95165.31;5040957;23;20069;-80
2022/02/16 08:06:31;;;;;;;127.82;75.05;;;;;;;10.39;46.66;95160.66;5205761;23;20055;-80
2022/02/16 08:08:57;;;;;;;130.20;75.90;;;;;;;10.36;46.09;95158.53;4959790;28;20043;-80
2022/02/16 08:13:58;;;;;;;114.65;67.22;;;;;;;10.36;46.60;95153.31;5318535;23;20058;-80
2022/02/16 08:16:27;;;;;;;117.28;67.00;;;;;;;10.43;45.98;95157.44;4961741;29;20043;-80
2022/02/16 08:18:52;;;;;;;123.53;64.25;;;;;;;10.41;46.70;95161.25;4948559;29;20384;-80
2022/02/16 08:21:18;;;;;;;105.00;57.42;;;;;;;10.39;45.63;95158.88;4940748;29;20035;-81
2022/02/16 08:23:43;;;;;;;87.95;53.60;;;;;;;10.25;46.74;95151.47;4946526;28;20403;-81
2022/02/16 08:26:09;;;;;;;89.10;51.40;;;;;;;10.25;46.12;95156.66;4930953;29;20035;-81
2022/02/16 08:28:35;;;;;;;94.05;51.58;;;;;;;10.35;45.77;95151.75;4933575;28;20043;-81
2022/02/16 08:31:01;;;;;;;82.50;49.15;;;;;;;10.45;46.13;95149.41;4930451;29;20476;-81
2022/02/16 08:33:26;;;;;;;76.93;47.35;;;;;;;10.46;46.02;95153.59;4948167;28;20031;-81
2022/02/16 08:35:52;;;;;;;88.72;47.78;;;;;;;10.58;45.45;95151.81;4916292;29;20058;-81
2022/02/16 08:38:17;;;;;;;98.07;52.13;;;;;;;10.60;45.87;95149.00;4929526;29;20550;-81
2022/02/16 08:40:43;;;;;;;76.80;45.00;;;;;;;10.69;45.67;95158.81;4948477;29;20043;-81
2022/02/16 08:43:08;;;;;;;74.45;40.05;;;;;;;10.72;45.31;95152.38;4953507;29;20411;-81
2022/02/16 08:45:34;;;;;;;82.05;41.72;;;;;;;10.78;45.12;95151.50;4962027;29;20059;-80
2022/02/16 08:47:59;;;;;;;76.82;39.90;;;;;;;10.56;44.95;95135.63;4933612;29;20031;-81
2022/02/16 08:50:26;;;;;;;75.40;39.40;;;;;;;10.47;45.37;95136.97;4944704;28;20047;-81
2022/02/16 08:52:51;;;;;;;81.80;38.92;;;;;;;10.57;45.74;95129.41;4949873;29;20035;-81
2022/02/16 08:55:17;;;;;;;75.90;38.05;;;;;;;10.27;45.88;95129.47;4974424;23;20051;-81
2022/02/16 08:57:42;;;;;;;69.22;36.35;;;;;;;10.38;45.73;95130.50;4966650;28;20038;-81
2022/02/16 09:00:08;;;;;;;63.72;35.25;;;;;;;10.51;45.18;95123.28;4956512;28;20046;-81
2022/02/16 09:02:35;;;;;;;60.45;34.35;;;;;;;10.55;45.78;95126.22;4947644;29;20027;-80
2022/02/16 09:05:01;;;;;;;63.95;30.88;;;;;;;10.53;45.75;95123.88;4948199;28;20039;-80
2022/02/16 09:07:30;;;;;;;56.72;32.22;;;;;;;10.64;45.68;95124.91;4945456;29;20055;-80
2022/02/16 09:10:14;;;;;;;53.22;29.02;;;;;;;10.60;45.38;95133.38;4938822;29;20102;-80
2022/02/16 09:12:39;;;;;;;44.92;28.27;;;;;;;10.45;46.24;95120.81;4947109;29;20043;-80
2022/02/16 09:15:05;;;;;;;81.25;34.35;;;;;;;10.52;45.37;95124.09;4938175;29;20477;-80
2022/02/16 09:17:31;;;;;;;54.80;30.15;;;;;;;10.59;45.71;95114.38;4930654;29;20046;-80
2022/02/16 09:19:56;;;;;;;66.70;33.85;;;;;;;10.43;45.72;95122.84;4946148;29;20121;-80
2022/02/16 09:22:22;;;;;;;69.25;33.17;;;;;;;10.52;45.85;95129.28;4927241;29;20559;-80
2022/02/16 09:24:48;;;;;;;70.50;33.00;;;;;;;10.60;46.07;95130.78;4932424;29;20047;-80
2022/02/16 09:27:14;;;;;;;69.15;34.13;;;;;;;10.68;45.95;95131.25;4938365;29;20047;-80
2022/02/16 09:29:40;;;;;;;67.10;34.95;;;;;;;10.84;45.50;95114.19;4931605;29;20062;-80
2022/02/16 09:32:06;;;;;;;71.50;38.92;;;;;;;10.97;45.89;95113.16;4952563;29;20513;-80
2022/02/16 09:34:31;;;;;;;90.47;50.88;;;;;;;11.08;45.41;95115.00;4929161;29;20039;-81
2022/02/16 09:36:57;;;;;;;99.80;52.47;;;;;;;11.05;45.71;95111.00;5024015;23;20051;-80
2022/02/16 09:39:22;;;;;;;97.13;50.30;;;;;;;11.11;45.52;95107.50;4947115;29;20099;-79
2022/02/16 09:41:48;;;;;;;103.05;52.13;;;;;;;11.26;45.24;95112.25;4920539;29;20028;-80
2022/02/16 09:44:14;;;;;;;87.82;50.33;;;;;;;11.21;44.73;95109.53;4919059;29;20039;-80
2022/02/16 09:46:40;;;;;;;84.03;51.35;;;;;;;11.04;45.14;95109.41;4920591;29;20035;-80
2022/02/16 09:49:06;;;;;;;98.30;51.13;;;;;;;10.89;45.87;95105.69;4936747;29;20027;-80
2022/02/16 09:51:31;;;;;;;88.60;50.05;;;;;;;10.99;45.79;95105.94;5132338;23;20527;-81
2022/02/16 09:53:56;;;;;;;84.30;46.42;;;;;;;10.81;45.54;95099.81;5156657;23;20035;-81
2022/02/16 09:56:22;;;;;;;101.63;46.83;;;;;;;10.82;45.87;95095.41;4956581;28;20039;-81
2022/02/16 09:58:49;;;;;;;92.80;42.47;;;;;;;10.96;46.05;95101.19;4956069;28;20043;-81
2022/02/16 10:01:16;;;;;;;90.38;43.95;;;;;;;11.07;45.27;95092.59;4954647;29;20062;-80
2022/02/16 10:04:11;;;;;;;69.32;38.85;;;;;;;11.13;45.23;95100.25;4939069;29;20067;-80
2022/02/16 10:06:41;;;;;;;63.50;35.40;;;;;;;11.16;45.61;95093.81;4925839;29;20043;-81
2022/02/16 10:09:07;;;;;;;52.28;34.53;;;;;;;11.17;45.58;95090.19;4940778;29;20094;-81
2022/02/16 10:11:33;;;;;;;60.05;37.95;;;;;;;11.16;44.95;95080.78;4945073;29;20058;-81
2022/02/16 10:14:21;;;;;;;72.05;39.80;;;;;;;11.35;45.08;95091.84;4964301;29;20097;-79
2022/02/16 10:16:47;;;;;;;65.25;40.08;;;;;;;11.48;44.82;95080.41;4957072;29;20106;-81
2022/02/16 10:19:13;;;;;;;80.75;42.35;;;;;;;11.54;44.49;95063.84;4930629;29;20042;-81
2022/02/16 10:21:39;;;;;;;77.75;40.78;;;;;;;11.40;44.80;95069.34;4954210;29;20035;-80
2022/02/16 10:24:04;;;;;;;70.35;39.70;;;;;;;11.55;44.69;95070.63;4946564;28;20046;-80
2022/02/16 10:26:49;;;;;;;74.72;39.97;;;;;;;11.65;44.76;95055.22;4955577;29;20098;-80
2022/02/16 10:29:23;;;;;;;85.15;40.67;;;;;;;11.79;44.44;95053.94;4955114;29;20041;-80
2022/02/16 10:31:48;;;;;;;65.38;38.75;;;;;;;11.89;43.89;95050.75;5162608;23;20102;-82
2022/02/16 10:34:14;;;;;;;62.33;37.90;;;;;;;12.01;43.85;95049.63;4961290;28;20050;-80
2022/02/16 10:36:39;;;;;;;66.20;37.15;;;;;;;12.12;43.33;95039.41;4954643;29;20035;-82
2022/02/16 10:39:06;;;;;;;67.55;36.55;;;;;;;12.31;43.02;95040.75;4955164;29;20066;-81
2022/02/16 10:41:48;;;;;;;80.03;39.42;;;;;;;12.40;43.14;95034.13;4942015;29;20091;-81
2022/02/16 10:44:24;;;;;;;60.13;36.53;;;;;;;12.42;42.94;95039.91;4955829;28;20050;-81
2022/02/16 10:47:06;;;;;;;54.13;33.28;;;;;;;12.55;42.36;95026.53;4956213;29;20062;-82
2022/02/16 10:49:36;;;;;;;58.38;35.10;;;;;;;12.61;42.44;95014.34;4956053;28;20492;-81
2022/02/16 10:52:06;;;;;;;71.10;35.22;;;;;;;12.76;42.23;95005.94;4956830;29;20665;-81
2022/02/16 10:54:32;;;;;;;61.67;35.85;;;;;;;12.89;41.53;95000.41;4953522;29;20055;-80
2022/02/16 10:56:57;;;;;;;58.17;34.83;;;;;;;13.02;41.44;94999.25;4973089;29;20024;-80
2022/02/16 10:59:23;;;;;;;59.78;35.20;;;;;;;13.17;40.97;94986.38;4954401;29;20039;-82
2022/02/16 11:01:48;;;;;;;50.10;28.98;;;;;;;13.13;40.06;94977.44;4995422;23;20043;-81
2022/02/16 11:04:15;;;;;;;63.28;31.15;;;;;;;13.29;40.12;94989.69;5032266;23;20143;-82
2022/02/16 11:06:47;;;;;;;53.47;29.77;;;;;;;13.39;40.29;94978.56;4950784;29;20035;-83
2022/02/16 11:09:20;;;;;;;52.55;31.80;;;;;;;13.57;39.42;94969.63;4943820;28;20046;-82
2022/02/16 11:11:51;;;;;;;61.83;31.80;;;;;;;13.71;39.52;94968.97;4938635;29;20047;-82
2022/02/16 11:14:17;;;;;;;52.60;30.90;;;;;;;13.85;39.31;94968.59;4927456;29;20564;-82
2022/02/16 11:16:45;;;;;;;59.13;27.13;;;;;;;13.96;39.23;94960.56;4946154;28;20397;-82
2022/02/16 11:19:22;;;;;;;45.20;26.10;;;;;;;14.07;39.29;94959.63;4935276;29;20032;-82
2022/02/16 11:22:13;;;;;;;36.45;22.85;;;;;;;13.81;39.77;94955.19;4964578;28;20027;-82
2022/02/16 11:24:43;;;;;;;52.03;27.77;;;;;;;13.73;40.41;94937.38;4943147;29;20050;-82
2022/02/16 11:27:38;;;;;;;48.97;24.73;;;;;;;13.61;40.77;94945.34;4955045;29;20500;-82
2022/02/16 11:30:05;;;;;;;44.22;27.67;;;;;;;13.56;40.72;94947.91;4940448;29;20028;-82
2022/02/16 11:32:38;;;;;;;61.47;24.95;;;;;;;13.56;40.52;94942.69;4948256;28;20036;-82